createdAt,value
2023-04-15T00:01:49.359Z,11.35
2023-04-15T00:04:16.550Z,11.30
2023-04-15T00:06:43.600Z,11.34
2023-04-15T00:09:10.526Z,11.27
2023-04-15T00:11:37.540Z,11.30
2023-04-15T00:14:04.752Z,11.27
2023-04-15T00:16:31.826Z,11.24
2023-04-15T00:18:59.298Z,11.20
2023-04-15T00:21:27.788Z,11.25
2023-04-15T00:23:55.026Z,11.22
2023-04-15T00:26:22.562Z,11.27
2023-04-15T00:28:50.832Z,11.28
2023-04-15T00:31:18.387Z,11.26
2023-04-15T00:33:46.401Z,11.22
2023-04-15T00:36:13.558Z,11.21
2023-04-15T00:38:40.818Z,11.12
2023-04-15T00:41:08.008Z,11.09
2023-04-15T00:43:35.217Z,11.16
2023-04-15T00:46:04.293Z,11.15
2023-04-15T00:48:32.581Z,11.11
2023-04-15T00:50:59.560Z,10.95
2023-04-15T00:53:26.631Z,10.98
2023-04-15T00:55:54.400Z,10.85
2023-04-15T00:58:21.644Z,10.86
2023-04-15T01:00:49.519Z,10.83
2023-04-15T01:03:16.555Z,10.78
2023-04-15T01:05:43.882Z,10.76
2023-04-15T01:08:10.861Z,10.76
2023-04-15T01:10:38.093Z,10.76
2023-04-15T01:13:05.215Z,10.66
2023-04-15T01:15:33.628Z,10.63
2023-04-15T01:18:01.348Z,10.63
2023-04-15T01:20:29.232Z,10.55
2023-04-15T01:22:58.746Z,10.58
2023-04-15T01:25:33.652Z,10.54
2023-04-15T01:28:01.487Z,10.52
2023-04-15T01:30:28.757Z,10.52
2023-04-15T01:32:56.402Z,10.50
2023-04-15T01:35:24.223Z,10.50
2023-04-15T01:37:51.853Z,10.53
2023-04-15T01:40:18.891Z,10.51
2023-04-15T01:42:45.962Z,10.53
2023-04-15T01:45:14.290Z,10.45
2023-04-15T01:47:41.378Z,10.45
2023-04-15T01:50:10.333Z,10.39
2023-04-15T01:52:37.850Z,10.44
2023-04-15T01:55:05.048Z,10.37
2023-04-15T01:57:32.397Z,10.37
2023-04-15T01:59:59.323Z,10.35
2023-04-15T02:02:26.661Z,10.31
2023-04-15T02:04:59.053Z,10.36
2023-04-15T02:07:26.830Z,10.34
2023-04-15T02:09:53.783Z,10.41
2023-04-15T02:12:21.280Z,10.24
2023-04-15T02:14:48.260Z,10.31
2023-04-15T02:17:15.865Z,10.34
2023-04-15T02:19:43.540Z,10.35
2023-04-15T02:22:13.715Z,10.29
2023-04-15T02:24:40.633Z,10.23
2023-04-15T02:27:09.108Z,10.33
2023-04-15T02:29:36.208Z,10.27
2023-04-15T02:32:03.192Z,10.24
2023-04-15T02:34:30.644Z,10.28
2023-04-15T02:36:58.153Z,10.27
2023-04-15T02:39:25.351Z,10.31
2023-04-15T02:41:52.706Z,10.27
2023-04-15T02:44:20.839Z,10.16
2023-04-15T02:46:52.710Z,10.15
2023-04-15T02:49:22.012Z,10.15
2023-04-15T02:51:49.916Z,10.16
2023-04-15T02:54:23.202Z,10.15
2023-04-15T02:56:51.024Z,10.15
2023-04-15T02:59:18.125Z,10.11
2023-04-15T03:01:45.185Z,10.08
2023-04-15T03:04:12.585Z,10.04
2023-04-15T03:06:39.662Z,10.08
2023-04-15T03:09:10.931Z,10.01
2023-04-15T03:11:40.923Z,10.05
2023-04-15T03:14:09.747Z,10.00
2023-04-15T03:16:40.360Z,9.97
2023-04-15T03:19:07.664Z,9.96
2023-04-15T03:21:34.813Z,9.96
2023-04-15T03:24:01.820Z,9.81
2023-04-15T03:26:29.837Z,9.70
2023-04-15T03:29:01.218Z,9.64
2023-04-15T03:31:28.713Z,9.63
2023-04-15T03:33:56.526Z,9.61
2023-04-15T03:36:24.145Z,9.55
2023-04-15T03:38:51.185Z,9.43
2023-04-15T03:41:18.244Z,9.39
2023-04-15T03:43:45.261Z,9.32
2023-04-15T03:46:12.295Z,9.30
2023-04-15T03:48:39.242Z,9.22
2023-04-15T03:51:06.239Z,9.17
2023-04-15T03:53:33.155Z,9.15
2023-04-15T03:56:00.141Z,9.15
2023-04-15T03:58:27.109Z,9.08
2023-04-15T04:00:55.044Z,9.04
2023-04-15T04:03:22.137Z,8.99
2023-04-15T04:05:49.550Z,8.91
2023-04-15T04:08:16.856Z,8.89
2023-04-15T04:10:43.776Z,8.82
2023-04-15T04:13:10.867Z,8.84
2023-04-15T04:15:37.849Z,8.81
2023-04-15T04:18:04.995Z,8.76
2023-04-15T04:20:32.384Z,8.69
2023-04-15T04:22:59.375Z,8.66
2023-04-15T04:25:26.437Z,8.58
2023-04-15T04:27:53.351Z,8.56
2023-04-15T04:30:20.475Z,8.50
2023-04-15T04:32:47.576Z,8.47
2023-04-15T04:35:14.578Z,8.39
2023-04-15T04:37:41.452Z,8.37
2023-04-15T04:40:09.712Z,8.37
2023-04-15T04:42:38.578Z,8.37
2023-04-15T04:45:07.654Z,8.30
2023-04-15T04:47:34.718Z,8.24
2023-04-15T04:50:01.656Z,8.26
2023-04-15T04:52:28.540Z,8.24
2023-04-15T04:54:55.827Z,8.28
2023-04-15T04:57:22.834Z,8.28
2023-04-15T04:59:49.711Z,8.28
2023-04-15T05:02:16.816Z,8.25
2023-04-15T05:04:43.897Z,8.23
2023-04-15T05:07:12.476Z,8.22
2023-04-15T05:09:39.840Z,8.18
2023-04-15T05:12:08.084Z,8.17
2023-04-15T05:14:35.212Z,8.09
2023-04-15T05:17:02.214Z,8.10
2023-04-15T05:19:32.947Z,8.01
2023-04-15T05:22:01.139Z,7.89
2023-04-15T05:24:37.262Z,7.87
2023-04-15T05:27:05.480Z,7.82
2023-04-15T05:29:32.668Z,7.83
2023-04-15T05:32:00.400Z,7.75
2023-04-15T05:34:27.842Z,7.75
2023-04-15T05:36:55.091Z,7.69
2023-04-15T05:39:22.344Z,7.68
2023-04-15T05:41:51.141Z,7.67
2023-04-15T05:44:22.089Z,7.68
2023-04-15T05:46:49.261Z,7.64
2023-04-15T05:49:17.289Z,7.65
2023-04-15T05:51:44.416Z,7.63
2023-04-15T05:54:11.420Z,7.61
2023-04-15T05:56:38.458Z,7.55
2023-04-15T05:59:10.342Z,7.52
2023-04-15T06:01:40.629Z,7.56
2023-04-15T06:04:07.839Z,7.58
2023-04-15T06:06:35.986Z,7.59
2023-04-15T06:09:03.735Z,7.57
2023-04-15T06:11:31.068Z,7.58
2023-04-15T06:13:58.131Z,7.60
2023-04-15T06:16:25.516Z,7.61
2023-04-15T06:18:53.786Z,7.67
2023-04-15T06:21:21.378Z,7.71
2023-04-15T06:23:48.473Z,7.82
2023-04-15T06:26:15.718Z,7.91
2023-04-15T06:28:42.735Z,7.99
2023-04-15T06:31:10.013Z,8.04
2023-04-15T06:33:36.942Z,8.09
2023-04-15T06:36:08.226Z,8.21
2023-04-15T06:38:40.739Z,8.35
2023-04-15T06:41:08.581Z,8.36
2023-04-15T06:43:35.773Z,8.47
2023-04-15T06:46:03.895Z,8.59
2023-04-15T06:48:32.324Z,8.59
2023-04-15T06:50:59.918Z,8.64
2023-04-15T06:53:29.650Z,8.76
2023-04-15T06:55:56.805Z,8.77
2023-04-15T06:58:23.897Z,8.85
2023-04-15T07:00:51.334Z,8.86
2023-04-15T07:03:18.629Z,8.87
2023-04-15T07:05:46.004Z,8.99
2023-04-15T07:08:12.918Z,9.12
2023-04-15T07:10:39.951Z,9.25
2023-04-15T07:13:09.113Z,9.66
2023-04-15T07:15:36.138Z,9.45
2023-04-15T07:18:03.215Z,9.62
2023-04-15T07:20:30.384Z,9.55
2023-04-15T07:22:57.792Z,9.54
2023-04-15T07:25:25.380Z,9.57
2023-04-15T07:27:53.347Z,9.68
2023-04-15T07:30:20.509Z,10.00
2023-04-15T07:32:47.445Z,10.19
2023-04-15T07:35:15.219Z,10.01
2023-04-15T07:37:44.379Z,10.08
2023-04-15T07:40:12.225Z,10.39
2023-04-15T07:42:41.146Z,10.61
2023-04-15T07:45:09.457Z,10.41
2023-04-15T07:47:37.141Z,10.83
2023-04-15T07:50:04.415Z,10.63
2023-04-15T07:52:34.024Z,10.89
2023-04-15T07:55:01.684Z,10.62
2023-04-15T07:57:28.607Z,10.81
2023-04-15T07:59:55.628Z,10.73
2023-04-15T08:02:22.832Z,11.08
2023-04-15T08:04:50.005Z,10.85
2023-04-15T08:07:17.202Z,11.01
2023-04-15T08:09:47.871Z,11.05
2023-04-15T08:12:16.343Z,11.00
2023-04-15T08:14:44.353Z,11.11
2023-04-15T08:17:15.263Z,11.05
2023-04-15T08:19:45.127Z,11.36
2023-04-15T08:22:17.859Z,11.47
2023-04-15T08:24:56.398Z,11.44
2023-04-15T08:27:23.489Z,11.49
2023-04-15T08:29:50.422Z,11.53
2023-04-15T08:32:17.422Z,11.92
2023-04-15T08:34:44.447Z,11.99
2023-04-15T08:37:15.454Z,11.93
2023-04-15T08:39:42.761Z,11.95
2023-04-15T08:42:17.237Z,12.09
2023-04-15T08:44:48.027Z,12.19
2023-04-15T08:47:15.937Z,12.47
2023-04-15T08:49:44.970Z,12.22
2023-04-15T08:52:13.038Z,12.23
2023-04-15T08:54:40.277Z,12.07
2023-04-15T08:57:08.367Z,12.07
2023-04-15T08:59:35.910Z,12.15
2023-04-15T09:02:04.172Z,12.45
2023-04-15T09:04:31.695Z,12.62
2023-04-15T09:06:58.766Z,12.83
2023-04-15T09:09:25.892Z,13.02
2023-04-15T09:11:53.483Z,12.95
2023-04-15T09:14:21.169Z,13.08
2023-04-15T09:17:02.264Z,13.39
2023-04-15T09:19:30.776Z,13.40
2023-04-15T09:21:59.395Z,13.27
2023-04-15T09:24:34.087Z,13.08
2023-04-15T09:27:02.591Z,13.04
2023-04-15T09:29:33.210Z,12.98
2023-04-15T09:32:11.811Z,13.06
2023-04-15T09:34:39.177Z,12.85
2023-04-15T09:37:07.800Z,12.87
2023-04-15T09:39:49.450Z,13.17
2023-04-15T09:42:20.366Z,13.55
2023-04-15T09:44:53.185Z,13.62
2023-04-15T09:47:33.081Z,13.62
2023-04-15T09:50:02.185Z,13.80
2023-04-15T09:52:29.898Z,13.76
2023-04-15T09:55:01.879Z,13.92
2023-04-15T09:57:38.837Z,13.84
2023-04-15T10:00:07.643Z,13.63
2023-04-15T10:02:36.884Z,13.30
2023-04-15T10:05:05.013Z,13.46
2023-04-15T10:07:33.431Z,13.56
2023-04-15T10:10:03.321Z,13.78
2023-04-15T10:12:31.941Z,13.98
2023-04-15T10:15:09.631Z,14.18
2023-04-15T10:17:37.607Z,14.30
2023-04-15T10:20:06.431Z,13.97
2023-04-15T10:22:35.089Z,13.66
2023-04-15T10:25:03.121Z,13.84
2023-04-15T10:27:30.599Z,13.99
2023-04-15T10:29:57.837Z,14.13
2023-04-15T10:32:25.903Z,14.16
2023-04-15T10:34:55.365Z,14.14
2023-04-15T10:37:24.569Z,13.90
2023-04-15T10:39:52.469Z,13.69
2023-04-15T10:42:21.084Z,13.78
2023-04-15T10:44:54.897Z,14.03
2023-04-15T10:47:23.530Z,14.26
2023-04-15T10:49:52.830Z,14.35
2023-04-15T10:52:25.560Z,14.25
2023-04-15T10:55:04.924Z,14.27
2023-04-15T10:57:38.930Z,14.52
2023-04-15T11:00:14.544Z,14.38
2023-04-15T11:02:44.891Z,13.99
2023-04-15T11:05:13.247Z,14.21
2023-04-15T11:07:41.486Z,14.30
2023-04-15T11:10:26.161Z,14.45
2023-04-15T11:13:02.969Z,14.31
2023-04-15T11:15:37.052Z,14.17
2023-04-15T11:18:07.672Z,14.61
2023-04-15T11:20:34.966Z,14.59
2023-04-15T11:23:08.271Z,14.33
2023-04-15T11:25:43.552Z,14.34
2023-04-15T11:28:11.648Z,14.66
2023-04-15T11:30:39.537Z,14.73
2023-04-15T11:33:07.579Z,14.50
2023-04-15T11:35:35.572Z,14.63
2023-04-15T11:38:06.450Z,14.80
2023-04-15T11:40:33.714Z,14.44
2023-04-15T11:43:21.885Z,14.81
2023-04-15T11:45:51.795Z,15.13
2023-04-15T11:48:51.599Z,14.76
2023-04-15T11:52:24.882Z,14.40
2023-04-15T11:54:22.785Z,14.40
2023-04-15T11:56:53.928Z,14.74
2023-04-15T11:59:22.985Z,14.71
2023-04-15T12:01:52.938Z,15.00
2023-04-15T12:04:25.575Z,15.15
2023-04-15T12:06:53.753Z,15.06
2023-04-15T12:09:21.931Z,15.32
2023-04-15T12:11:50.985Z,15.24
2023-04-15T12:14:26.010Z,15.22
2023-04-15T12:16:54.566Z,14.97
2023-04-15T12:19:28.725Z,14.94
2023-04-15T12:22:01.529Z,14.73
2023-04-15T12:24:31.289Z,14.82
2023-04-15T12:27:05.863Z,14.86
2023-04-15T12:29:34.434Z,15.24
2023-04-15T12:32:10.119Z,15.40
2023-04-15T12:34:38.883Z,15.41
2023-04-15T12:37:10.567Z,15.68
2023-04-15T12:39:39.637Z,15.88
2023-04-15T12:42:11.124Z,15.78
2023-04-15T12:44:45.795Z,15.52
2023-04-15T12:47:14.439Z,15.33
2023-04-15T12:49:41.911Z,15.09
2023-04-15T12:52:10.092Z,14.57
2023-04-15T12:54:38.455Z,14.67
2023-04-15T12:57:10.193Z,14.62
2023-04-15T12:59:38.549Z,14.89
2023-04-15T13:02:09.180Z,14.97
2023-04-15T13:04:37.858Z,15.13
2023-04-15T13:07:05.119Z,15.03
2023-04-15T13:09:40.964Z,15.04
2023-04-15T13:12:08.459Z,14.96
2023-04-15T13:14:35.423Z,14.76
2023-04-15T13:17:04.351Z,14.83
2023-04-15T13:19:33.193Z,14.55
2023-04-15T13:22:00.698Z,14.62
2023-04-15T13:24:30.142Z,14.64
2023-04-15T13:27:00.112Z,14.90
2023-04-15T13:29:27.891Z,15.26
2023-04-15T13:31:55.951Z,15.31
2023-04-15T13:34:23.226Z,14.97
2023-04-15T13:36:51.496Z,15.05
2023-04-15T13:39:19.898Z,15.08
2023-04-15T13:41:48.737Z,14.98
2023-04-15T13:44:15.866Z,15.20
2023-04-15T13:46:44.456Z,15.22
2023-04-15T13:49:11.891Z,15.35
2023-04-15T13:51:38.863Z,15.28
2023-04-15T13:54:07.464Z,15.11
2023-04-15T13:56:35.067Z,15.27
2023-04-15T13:59:02.553Z,15.29
2023-04-15T14:01:32.941Z,15.25
2023-04-15T14:04:00.550Z,15.08
2023-04-15T14:06:28.208Z,14.84
2023-04-15T14:08:56.739Z,14.83
2023-04-15T14:11:23.814Z,14.72
2023-04-15T14:13:50.834Z,14.56
2023-04-15T14:16:18.857Z,14.46
2023-04-15T14:18:49.648Z,14.69
2023-04-15T14:21:18.062Z,15.14
2023-04-15T14:23:45.123Z,15.27
2023-04-15T14:26:12.245Z,15.56
2023-04-15T14:28:40.336Z,15.58
2023-04-15T14:31:07.732Z,15.57
2023-04-15T14:33:35.682Z,15.32
2023-04-15T14:36:03.453Z,15.33
2023-04-15T14:38:35.120Z,15.32
2023-04-15T14:41:03.524Z,15.51
2023-04-15T14:43:31.667Z,15.82
2023-04-15T14:45:59.091Z,15.83
2023-04-15T14:48:26.103Z,16.16
2023-04-15T14:50:53.974Z,16.10
2023-04-15T14:53:21.612Z,15.92
2023-04-15T14:55:48.605Z,15.92
2023-04-15T14:58:19.447Z,15.97
2023-04-15T15:00:46.812Z,16.01
2023-04-15T15:03:14.207Z,15.69
2023-04-15T15:05:46.463Z,15.57
2023-04-15T15:08:14.246Z,15.59
2023-04-15T15:10:49.464Z,15.51
2023-04-15T15:13:17.635Z,15.89
2023-04-15T15:15:45.738Z,15.84
2023-04-15T15:18:13.198Z,15.70
2023-04-15T15:20:41.439Z,15.89
2023-04-15T15:23:08.823Z,16.02
2023-04-15T15:25:37.049Z,15.72
2023-04-15T15:28:04.585Z,15.48
2023-04-15T15:30:32.577Z,15.60
2023-04-15T15:32:59.745Z,15.52
2023-04-15T15:35:30.304Z,15.29
2023-04-15T15:37:57.853Z,15.28
2023-04-15T15:40:24.728Z,15.42
2023-04-15T15:42:52.009Z,15.39
2023-04-15T15:45:23.043Z,15.41
2023-04-15T15:47:50.425Z,15.38
2023-04-15T15:50:17.370Z,15.31
2023-04-15T15:52:45.394Z,15.41
2023-04-15T15:55:12.683Z,15.22
2023-04-15T15:57:40.673Z,15.20
2023-04-15T16:00:12.142Z,15.05
2023-04-15T16:03:05.171Z,15.16
2023-04-15T16:05:28.260Z,15.06
2023-04-15T16:07:55.805Z,15.00
2023-04-15T16:10:24.207Z,14.85
2023-04-15T16:12:59.894Z,14.58
2023-04-15T16:15:27.841Z,14.43
2023-04-15T16:17:56.252Z,14.53
2023-04-15T16:20:26.767Z,14.60
2023-04-15T16:22:53.731Z,14.54
2023-04-15T16:25:21.746Z,14.67
2023-04-15T16:28:03.005Z,14.52
2023-04-15T16:30:41.063Z,14.51
2023-04-15T16:33:09.551Z,14.44
2023-04-15T16:35:40.180Z,14.44
2023-04-15T16:38:08.601Z,14.28
2023-04-15T16:40:38.180Z,14.33
2023-04-15T16:43:07.653Z,14.40
2023-04-15T16:45:35.724Z,14.22
2023-04-15T16:48:03.230Z,14.22
2023-04-15T16:50:31.224Z,14.31
2023-04-15T16:52:58.412Z,14.17
2023-04-15T16:55:25.641Z,14.10
2023-04-15T16:58:02.773Z,13.98
2023-04-15T17:00:31.597Z,13.97
2023-04-15T17:03:00.125Z,13.96
2023-04-15T17:05:33.569Z,14.01
2023-04-15T17:08:05.460Z,13.75
2023-04-15T17:10:33.895Z,13.76
2023-04-15T17:13:02.090Z,13.78
2023-04-15T17:15:29.477Z,13.79
2023-04-15T17:17:57.037Z,13.78
2023-04-15T17:20:24.573Z,13.62
2023-04-15T17:22:52.793Z,13.58
2023-04-15T17:25:20.169Z,13.56
2023-04-15T17:27:50.579Z,13.47
2023-04-15T17:30:17.668Z,13.50
2023-04-15T17:32:44.894Z,13.49
2023-04-15T17:35:12.183Z,13.38
2023-04-15T17:37:39.824Z,13.36
2023-04-15T17:40:08.751Z,13.18
2023-04-15T17:42:37.229Z,13.21
2023-04-15T17:45:04.757Z,13.02
2023-04-15T17:47:32.287Z,13.11
2023-04-15T17:49:59.406Z,12.84
2023-04-15T17:52:26.531Z,12.87
2023-04-15T17:54:53.421Z,12.86
2023-04-15T17:57:22.434Z,12.83
2023-04-15T17:59:49.395Z,12.75
2023-04-15T18:02:16.593Z,12.60
2023-04-15T18:04:43.820Z,12.50
2023-04-15T18:07:11.017Z,12.25
2023-04-15T18:09:38.264Z,12.13
2023-04-15T18:12:07.778Z,12.17
2023-04-15T18:14:36.557Z,12.26
2023-04-15T18:17:03.546Z,12.11
2023-04-15T18:19:31.276Z,12.08
2023-04-15T18:22:00.402Z,12.09
2023-04-15T18:24:27.882Z,12.09
2023-04-15T18:26:54.874Z,11.94
2023-04-15T18:29:22.185Z,11.95
2023-04-15T18:31:49.339Z,11.88
2023-04-15T18:34:16.304Z,11.79
2023-04-15T18:36:43.397Z,11.76
2023-04-15T18:39:11.253Z,11.78
2023-04-15T18:41:39.074Z,11.58
2023-04-15T18:44:06.397Z,11.64
2023-04-15T18:46:33.528Z,11.56
2023-04-15T18:49:00.663Z,11.39
2023-04-15T18:51:39.207Z,11.35
2023-04-15T18:54:12.872Z,11.31
2023-04-15T18:56:40.295Z,11.28
2023-04-15T18:59:29.386Z,11.17
2023-04-15T19:02:07.913Z,11.21
2023-04-15T19:04:38.790Z,11.19
2023-04-15T19:07:06.187Z,11.16
2023-04-15T19:09:39.697Z,11.05
2023-04-15T19:12:06.859Z,11.11
2023-04-15T19:14:34.029Z,11.00
2023-04-15T19:17:01.263Z,10.94
2023-04-15T19:19:29.774Z,10.78
2023-04-15T19:21:58.225Z,10.82
2023-04-15T19:24:25.777Z,10.73
2023-04-15T19:26:53.562Z,10.64
2023-04-15T19:29:23.990Z,10.66
2023-04-15T19:31:51.150Z,10.64
2023-04-15T19:34:18.141Z,10.57
2023-04-15T19:36:45.218Z,10.45
2023-04-15T19:39:12.369Z,10.42
2023-04-15T19:41:56.977Z,10.33
2023-04-15T19:44:25.590Z,10.29
2023-04-15T19:46:53.559Z,10.26
2023-04-15T19:49:20.744Z,10.17
2023-04-15T19:51:50.913Z,10.14
2023-04-15T19:54:17.891Z,10.14
2023-04-15T19:56:44.915Z,10.06
2023-04-15T19:59:12.983Z,10.05
2023-04-15T20:01:40.214Z,10.04
2023-04-15T20:04:07.712Z,9.98
2023-04-15T20:06:34.911Z,9.86
2023-04-15T20:09:01.893Z,9.88
2023-04-15T20:12:46.653Z,9.77
2023-04-15T20:14:17.776Z,9.76
2023-04-15T20:16:45.036Z,9.77
2023-04-15T20:19:13.384Z,9.74
2023-04-15T20:21:40.505Z,9.72
2023-04-15T20:24:07.649Z,9.64
2023-04-15T20:26:34.656Z,9.61
2023-04-15T20:29:01.776Z,9.65
2023-04-15T20:31:29.274Z,9.51
2023-04-15T20:33:57.394Z,9.45
2023-04-15T20:36:24.754Z,9.38
2023-04-15T20:38:52.654Z,9.33
2023-04-15T20:41:20.865Z,9.37
2023-04-15T20:43:49.261Z,9.46
2023-04-15T20:46:21.050Z,9.45
2023-04-15T20:48:49.175Z,9.28
2023-04-15T20:51:17.176Z,9.29
2023-04-15T20:53:46.913Z,9.30
2023-04-15T20:56:14.863Z,9.24
2023-04-15T20:58:42.124Z,9.28
2023-04-15T21:01:10.534Z,9.23
2023-04-15T21:03:38.281Z,9.19
2023-04-15T21:06:06.215Z,9.15
2023-04-15T21:08:43.427Z,9.11
2023-04-15T21:11:33.234Z,9.05
2023-04-15T21:14:08.143Z,9.03
2023-04-15T21:16:36.269Z,8.99
2023-04-15T21:19:04.616Z,8.99
2023-04-15T21:21:35.616Z,8.94
2023-04-15T21:24:03.697Z,9.03
2023-04-15T21:26:31.886Z,8.92
2023-04-15T21:28:59.534Z,8.72
2023-04-15T21:31:27.308Z,8.87
2023-04-15T21:33:56.318Z,8.97
2023-04-15T21:36:23.917Z,8.97
2023-04-15T21:38:51.862Z,8.94
2023-04-15T21:41:23.180Z,8.94
2023-04-15T21:43:51.069Z,8.81
2023-04-15T21:46:32.532Z,8.68
2023-04-15T21:49:05.369Z,8.54
2023-04-15T21:51:33.284Z,8.35
2023-04-15T21:54:01.985Z,8.26
2023-04-15T21:56:29.172Z,8.19
2023-04-15T21:58:59.880Z,8.07
2023-04-15T22:01:27.166Z,7.94
2023-04-15T22:03:54.395Z,7.86
2023-04-15T22:06:21.658Z,7.87
2023-04-15T22:09:11.264Z,7.81
2023-04-15T22:11:38.816Z,7.73
2023-04-15T22:14:14.732Z,7.65
2023-04-15T22:16:52.021Z,7.63
2023-04-15T22:19:21.737Z,7.57
2023-04-15T22:21:52.453Z,7.51
2023-04-15T22:24:31.638Z,7.49
2023-04-15T22:27:06.568Z,7.46
2023-04-15T22:29:33.617Z,7.38
2023-04-15T22:32:00.741Z,7.34
2023-04-15T22:34:27.779Z,7.23
2023-04-15T22:36:54.735Z,7.30
2023-04-15T22:39:21.835Z,7.27
2023-04-15T22:41:49.021Z,7.13
2023-04-15T22:44:16.868Z,7.11
2023-04-15T22:46:44.469Z,7.11
2023-04-15T22:49:11.882Z,6.99
2023-04-15T22:51:39.138Z,7.00
2023-04-15T22:54:06.070Z,6.93
2023-04-15T22:56:33.116Z,6.91
2023-04-15T22:59:00.360Z,6.89
2023-04-15T23:01:27.388Z,6.87
2023-04-15T23:03:56.668Z,6.87
2023-04-15T23:06:31.601Z,6.88
2023-04-15T23:08:58.637Z,6.84
2023-04-15T23:11:25.848Z,6.87
2023-04-15T23:13:53.330Z,6.82
2023-04-15T23:16:20.746Z,6.84
2023-04-15T23:18:47.748Z,6.78
2023-04-15T23:21:14.681Z,6.80
2023-04-15T23:23:41.640Z,6.77
2023-04-15T23:26:08.749Z,6.78
2023-04-15T23:28:36.168Z,6.78
2023-04-15T23:31:03.339Z,6.76
2023-04-15T23:33:30.819Z,6.72
2023-04-15T23:35:57.947Z,6.80
2023-04-15T23:38:24.990Z,6.72
2023-04-15T23:40:52.273Z,6.79
2023-04-15T23:43:19.225Z,6.70
2023-04-15T23:45:46.256Z,6.71
2023-04-15T23:48:13.474Z,6.74
2023-04-15T23:50:40.553Z,6.75
2023-04-15T23:53:07.600Z,6.76
2023-04-15T23:55:35.417Z,6.76
2023-04-15T23:58:02.749Z,6.80
